Time,TemperatureF,DewpointF,PressureIn,WindDirection,WindDirectionDegrees,WindSpeedMPH,WindSpeedGustMPH,Humidity,HourlyPrecipIn,Conditions,Clouds,dailyrainin,SoftwareType,DateUTC
2013-07-28 00:02:00,64.0,58.0,30.09,ENE,71,0.0,2.0,81,0.00,,,0.04,,2013-07-28 05:02:00,
2013-07-28 00:12:00,64.0,58.0,30.09,ENE,71,0.0,2.0,81,0.00,,,0.04,,2013-07-28 05:12:00,
2013-07-28 00:22:00,64.0,58.0,30.09,ENE,71,0.0,2.0,81,0.00,,,0.04,,2013-07-28 05:22:00,
2013-07-28 00:32:00,64.0,58.0,30.09,ENE,71,0.0,2.0,81,0.00,,,0.04,,2013-07-28 05:32:00,
2013-07-28 00:43:00,64.0,58.0,30.09,ENE,71,0.0,2.0,81,0.00,,,0.04,,2013-07-28 05:43:00,
2013-07-28 00:53:00,64.0,58.0,30.10,East,82,0.0,2.0,81,0.00,,,0.04,,2013-07-28 05:53:00,
2013-07-28 01:02:00,64.0,58.0,30.10,ENE,68,2.0,3.0,81,0.00,,,0.04,,2013-07-28 06:02:00,
2013-07-28 01:12:00,64.0,58.0,30.10,ENE,68,2.0,3.0,81,0.00,,,0.04,,2013-07-28 06:12:00,
2013-07-28 01:22:00,64.0,58.0,30.10,ENE,77,2.0,3.0,82,0.00,,,0.04,,2013-07-28 06:22:00,
2013-07-28 01:32:00,64.0,59.0,30.09,SE,142,0.0,3.0,83,0.00,,,0.04,,2013-07-28 06:32:00,
2013-07-28 01:42:00,64.0,59.0,30.09,SE,142,0.0,3.0,83,0.00,,,0.04,,2013-07-28 06:42:00,
2013-07-28 01:53:00,64.0,59.0,30.09,SE,142,0.0,3.0,83,0.00,,,0.04,,2013-07-28 06:53:00,
2013-07-28 02:02:00,64.0,59.0,30.09,ESE,120,0.0,6.0,83,0.00,,,0.04,,2013-07-28 07:02:00,
2013-07-28 02:12:00,64.0,59.0,30.09,ESE,120,0.0,6.0,83,0.00,,,0.04,,2013-07-28 07:12:00,
2013-07-28 02:22:00,64.0,58.0,30.09,SSE,148,0.0,1.0,81,0.00,,,0.04,,2013-07-28 07:22:00,
2013-07-28 02:31:00,64.0,58.0,30.09,ESE,110,0.0,2.0,81,0.00,,,0.04,,2013-07-28 07:31:00,
2013-07-28 02:32:00,64.0,58.0,30.09,ENE,68,1.0,2.0,80,0.00,,,0.04,,2013-07-28 07:32:00,
2013-07-28 02:43:00,64.0,58.0,30.09,ENE,68,1.0,2.0,80,0.00,,,0.04,,2013-07-28 07:43:00,
2013-07-28 02:53:00,64.0,58.0,30.09,ESE,110,0.0,2.0,81,0.00,,,0.04,,2013-07-28 07:53:00,
2013-07-28 03:02:00,64.0,58.0,30.09,ESE,110,0.0,2.0,81,0.00,,,0.04,,2013-07-28 08:02:00,
2013-07-28 03:12:00,64.0,58.0,30.09,ESE,110,0.0,2.0,81,0.00,,,0.04,,2013-07-28 08:12:00,
2013-07-28 03:22:00,64.0,58.0,30.09,ESE,110,0.0,2.0,81,0.00,,,0.04,,2013-07-28 08:22:00,
2013-07-28 03:53:00,64.0,60.0,30.12,SW,229,0.0,1.0,86,0.02,,,0.06,,2013-07-28 08:53:00,
2013-07-28 04:02:00,64.0,60.0,30.12,SW,229,0.0,1.0,86,0.02,,,0.06,,2013-07-28 09:02:00,
2013-07-28 04:12:00,64.0,60.0,30.12,SW,229,0.0,1.0,86,0.02,,,0.06,,2013-07-28 09:12:00,
2013-07-28 04:22:00,64.0,60.0,30.12,SW,229,0.0,1.0,86,0.02,,,0.06,,2013-07-28 09:22:00,
2013-07-28 04:32:00,62.0,60.0,30.11,South,181,0.0,1.0,92,0.26,,,0.30,,2013-07-28 09:32:00,
2013-07-28 04:43:00,62.0,60.0,30.11,South,181,0.0,1.0,92,0.26,,,0.30,,2013-07-28 09:43:00,
2013-07-28 04:53:00,62.0,60.0,30.11,South,181,0.0,1.0,92,0.26,,,0.30,,2013-07-28 09:53:00,
2013-07-28 05:02:00,61.0,59.0,30.09,SW,218,1.0,6.0,93,0.31,,,0.44,,2013-07-28 10:02:00,
2013-07-28 05:12:00,61.0,59.0,30.09,SW,218,1.0,6.0,93,0.31,,,0.44,,2013-07-28 10:12:00,
2013-07-28 05:22:00,61.0,59.0,30.09,SW,218,1.0,6.0,93,0.31,,,0.44,,2013-07-28 10:22:00,
2013-07-28 05:32:00,61.0,59.0,30.09,SW,218,1.0,6.0,93,0.31,,,0.44,,2013-07-28 10:32:00,
2013-07-28 05:42:00,61.0,59.0,30.09,SW,218,1.0,6.0,93,0.31,,,0.44,,2013-07-28 10:42:00,
2013-07-28 05:53:00,60.0,58.0,30.10,SSE,148,0.0,1.0,93,0.21,,,0.59,,2013-07-28 10:53:00,
2013-07-28 06:02:00,60.0,58.0,30.10,SSE,148,0.0,1.0,93,0.21,,,0.59,,2013-07-28 11:02:00,
2013-07-28 06:12:00,60.0,58.0,30.10,SSE,148,0.0,1.0,93,0.21,,,0.59,,2013-07-28 11:12:00,
2013-07-28 06:22:00,59.0,57.0,30.10,SSE,158,2.0,7.0,92,0.24,,,0.71,,2013-07-28 11:22:00,
2013-07-28 06:33:00,59.0,57.0,30.10,SSE,158,2.0,7.0,92,0.24,,,0.71,,2013-07-28 11:33:00,
2013-07-28 06:43:00,59.0,57.0,30.10,SSE,158,2.0,7.0,92,0.24,,,0.71,,2013-07-28 11:43:00,
2013-07-28 06:54:00,59.0,57.0,30.10,SSE,158,2.0,7.0,92,0.24,,,0.71,,2013-07-28 11:54:00,
2013-07-28 07:02:00,57.0,55.0,30.10,SSE,151,0.0,0.0,92,0.16,,,0.78,,2013-07-28 12:02:00,
2013-07-28 07:12:00,57.0,55.0,30.10,SSE,151,0.0,0.0,92,0.16,,,0.78,,2013-07-28 12:12:00,
2013-07-28 07:22:00,57.0,55.0,30.10,SSE,151,0.0,0.0,92,0.08,,,0.78,,2013-07-28 12:22:00,
2013-07-28 07:33:00,57.0,55.0,30.10,SSE,151,0.0,0.0,92,0.08,,,0.78,,2013-07-28 12:33:00,
2013-07-28 07:43:00,57.0,55.0,30.10,SSE,151,0.0,0.0,92,0.08,,,0.78,,2013-07-28 12:43:00,
2013-07-28 07:53:00,57.0,55.0,30.10,SSE,151,0.0,0.0,92,0.00,,,0.78,,2013-07-28 12:53:00,
2013-07-28 08:02:00,57.0,55.0,30.10,SSE,151,0.0,0.0,92,0.00,,,0.78,,2013-07-28 13:02:00,
2013-07-28 08:12:00,57.0,55.0,30.10,SSE,151,0.0,0.0,92,0.00,,,0.78,,2013-07-28 13:12:00,
2013-07-28 08:22:00,57.0,55.0,30.09,SSE,151,0.0,0.0,92,0.00,,,0.78,,2013-07-28 13:22:00,
2013-07-28 08:32:00,57.0,55.0,30.09,SSE,151,0.0,0.0,92,0.00,,,0.78,,2013-07-28 13:32:00,
2013-07-28 08:43:00,57.0,55.0,30.09,SSE,151,0.0,0.0,92,0.00,,,0.78,,2013-07-28 13:43:00,
2013-07-28 08:53:00,57.0,55.0,30.08,SSE,151,0.0,0.0,92,0.00,,,0.78,,2013-07-28 13:53:00,
2013-07-28 09:02:00,58.0,57.0,30.09,SE,128,1.0,5.0,96,0.07,,,0.85,,2013-07-28 14:02:00,
2013-07-28 09:12:00,58.0,57.0,30.09,SE,128,1.0,5.0,96,0.07,,,0.85,,2013-07-28 14:12:00,
2013-07-28 09:23:00,58.0,57.0,30.09,SE,128,1.0,5.0,96,0.07,,,0.85,,2013-07-28 14:23:00,
2013-07-28 09:33:00,58.0,57.0,30.09,SE,128,1.0,5.0,96,0.07,,,0.85,,2013-07-28 14:33:00,
2013-07-28 09:43:00,58.0,57.0,30.09,SE,128,1.0,5.0,96,0.07,,,0.85,,2013-07-28 14:43:00,
2013-07-28 10:33:00,60.0,59.0,30.09,East,96,1.0,7.0,96,0.00,,,0.99,,2013-07-28 15:33:00,
2013-07-28 10:43:00,60.0,59.0,30.09,East,96,1.0,7.0,96,0.00,,,0.99,,2013-07-28 15:43:00,
2013-07-28 10:53:00,60.0,59.0,30.09,East,96,1.0,7.0,96,0.00,,,0.99,,2013-07-28 15:53:00,
2013-07-28 11:02:00,60.0,59.0,30.09,East,91,6.0,8.0,95,0.00,,,0.99,,2013-07-28 16:02:00,
2013-07-28 11:12:00,60.0,59.0,30.09,East,91,6.0,8.0,95,0.00,,,0.99,,2013-07-28 16:12:00,
2013-07-28 11:22:00,60.0,59.0,30.09,SE,142,7.0,8.0,95,0.00,,,0.99,,2013-07-28 16:22:00,
2013-07-28 11:33:00,60.0,59.0,30.09,SE,142,7.0,8.0,95,0.00,,,0.99,,2013-07-28 16:33:00,
2013-07-28 11:43:00,60.0,59.0,30.09,SE,142,7.0,8.0,95,0.00,,,0.99,,2013-07-28 16:43:00,
2013-07-28 11:52:00,60.0,59.0,30.09,SE,142,7.0,8.0,95,0.00,,,0.99,,2013-07-28 16:52:00,
2013-07-28 12:02:00,61.0,60.0,30.09,SSE,150,2.0,10.0,95,0.00,,,0.99,,2013-07-28 17:02:00,
2013-07-28 12:12:00,61.0,60.0,30.09,SSE,150,2.0,10.0,95,0.00,,,0.99,,2013-07-28 17:12:00,
2013-07-28 12:22:00,61.0,60.0,30.09,SSE,150,2.0,10.0,95,0.00,,,0.99,,2013-07-28 17:22:00,
2013-07-28 12:32:00,61.0,59.0,30.09,SE,134,6.0,7.0,94,0.00,,,0.99,,2013-07-28 17:32:00,
2013-07-28 12:43:00,61.0,59.0,30.09,SE,134,6.0,7.0,94,0.00,,,0.99,,2013-07-28 17:43:00,
2013-07-28 12:53:00,61.0,59.0,30.09,SE,134,6.0,7.0,94,0.00,,,0.99,,2013-07-28 17:53:00,
2013-07-28 13:03:00,61.0,59.0,30.09,SE,134,6.0,7.0,94,0.00,,,0.99,,2013-07-28 18:03:00,
2013-07-28 13:12:00,61.0,59.0,30.09,SE,134,6.0,7.0,94,0.00,,,0.99,,2013-07-28 18:12:00,
2013-07-28 13:23:00,61.0,59.0,30.09,ESE,118,2.0,6.0,94,0.00,,,0.99,,2013-07-28 18:23:00,
2013-07-28 13:33:00,61.0,59.0,30.09,ESE,118,2.0,6.0,94,0.00,,,0.99,,2013-07-28 18:33:00,
2013-07-28 13:43:00,61.0,59.0,30.09,ESE,118,2.0,6.0,94,0.00,,,0.99,,2013-07-28 18:43:00,
2013-07-28 13:52:00,61.0,59.0,30.09,ESE,118,2.0,6.0,94,0.00,,,0.99,,2013-07-28 18:52:00,
2013-07-28 14:01:00,62.0,61.0,30.08,SSE,150,0.0,6.0,95,0.04,,,1.03,,2013-07-28 19:01:00,
2013-07-28 14:02:00,62.0,61.0,30.09,East,89,3.0,6.0,95,0.02,,,1.01,,2013-07-28 19:02:00,
2013-07-28 14:12:00,62.0,61.0,30.09,East,89,3.0,6.0,95,0.02,,,1.01,,2013-07-28 19:12:00,
2013-07-28 14:22:00,62.0,61.0,30.08,SSE,150,0.0,6.0,95,0.04,,,1.03,,2013-07-28 19:22:00,
2013-07-28 14:33:00,62.0,61.0,30.08,SSE,150,0.0,6.0,95,0.04,,,1.03,,2013-07-28 19:33:00,
2013-07-28 14:43:00,62.0,61.0,30.08,SSE,150,0.0,6.0,95,0.04,,,1.03,,2013-07-28 19:43:00,
2013-07-28 14:52:00,62.0,61.0,30.08,SSE,150,0.0,6.0,95,0.04,,,1.03,,2013-07-28 19:52:00,
2013-07-28 15:01:00,63.0,62.0,30.08,East,94,4.0,4.0,95,0.05,,,1.08,,2013-07-28 20:01:00,
2013-07-28 15:23:00,63.0,62.0,30.08,East,94,4.0,4.0,95,0.05,,,1.08,,2013-07-28 20:23:00,
2013-07-28 15:33:00,63.0,62.0,30.08,East,94,4.0,4.0,95,0.05,,,1.08,,2013-07-28 20:33:00,
2013-07-28 15:43:00,63.0,62.0,30.08,East,94,4.0,4.0,95,0.05,,,1.08,,2013-07-28 20:43:00,
2013-07-28 15:53:00,63.0,62.0,30.08,East,94,4.0,4.0,95,0.05,,,1.08,,2013-07-28 20:53:00,
2013-07-28 16:33:00,64.0,63.0,30.06,NE,53,5.0,7.0,96,0.03,,,1.12,,2013-07-28 21:33:00,
2013-07-28 16:44:00,64.0,63.0,30.06,NE,53,5.0,7.0,96,0.03,,,1.12,,2013-07-28 21:44:00,
2013-07-28 16:52:00,64.0,63.0,30.06,NE,53,5.0,7.0,96,0.03,,,1.12,,2013-07-28 21:52:00,
2013-07-28 17:01:00,64.0,63.0,30.06,ESE,110,0.0,4.0,96,0.09,,,1.20,,2013-07-28 22:01:00,
2013-07-28 17:02:00,64.0,63.0,30.07,SE,146,0.0,5.0,96,0.09,,,1.19,,2013-07-28 22:02:00,
2013-07-28 17:12:00,64.0,63.0,30.07,SE,146,0.0,5.0,96,0.09,,,1.19,,2013-07-28 22:12:00,
2013-07-28 17:22:00,64.0,63.0,30.06,ESE,110,0.0,4.0,96,0.09,,,1.20,,2013-07-28 22:22:00,
2013-07-28 17:32:00,64.0,63.0,30.06,ESE,110,0.0,4.0,96,0.09,,,1.20,,2013-07-28 22:32:00,
2013-07-28 17:43:00,64.0,63.0,30.06,ESE,110,0.0,4.0,96,0.09,,,1.20,,2013-07-28 22:43:00,
2013-07-28 17:52:00,64.0,63.0,30.06,ESE,110,0.0,4.0,96,0.09,,,1.20,,2013-07-28 22:52:00,
2013-07-28 18:22:00,64.0,63.0,30.05,East,100,1.0,6.0,96,0.01,,,1.20,,2013-07-28 23:22:00,
2013-07-28 18:31:00,64.0,63.0,30.05,NE,49,3.0,8.0,97,0.01,,,1.21,,2013-07-28 23:31:00,
2013-07-28 18:33:00,64.0,63.0,30.05,East,100,1.0,6.0,96,0.01,,,1.20,,2013-07-28 23:33:00,
2013-07-28 18:43:00,64.0,63.0,30.05,East,100,1.0,6.0,96,0.01,,,1.20,,2013-07-28 23:43:00,
2013-07-28 18:53:00,64.0,63.0,30.05,NE,49,3.0,8.0,97,0.01,,,1.21,,2013-07-28 23:53:00,
2013-07-28 19:02:00,64.0,63.0,30.05,NE,49,3.0,8.0,97,0.01,,,1.21,,2013-07-29 00:02:00,
2013-07-28 19:22:00,64.0,63.0,30.05,NE,49,3.0,8.0,97,0.01,,,1.21,,2013-07-29 00:22:00,
2013-07-28 20:02:00,64.0,63.0,30.05,East,98,3.0,6.0,97,0.05,,,1.27,,2013-07-29 01:02:00,
2013-07-28 20:13:00,64.0,63.0,30.05,East,98,3.0,6.0,97,0.05,,,1.27,,2013-07-29 01:13:00,
2013-07-28 20:27:00,64.0,63.0,30.05,East,98,3.0,6.0,97,0.05,,,1.27,,2013-07-29 01:27:00,
2013-07-28 20:34:00,64.0,63.0,30.06,SE,124,0.0,8.0,97,0.06,,,1.30,,2013-07-29 01:34:00,
2013-07-28 20:43:00,64.0,63.0,30.06,SE,124,0.0,8.0,97,0.06,,,1.30,,2013-07-29 01:43:00,
2013-07-28 21:00:00,64.0,63.0,30.06,SE,124,0.0,8.0,97,0.06,,,1.30,,2013-07-29 02:00:00,
2013-07-28 21:13:00,64.0,63.0,30.06,SE,124,0.0,8.0,97,0.06,,,1.30,,2013-07-29 02:13:00,
2013-07-28 21:46:00,64.0,63.0,30.06,SE,125,2.0,10.0,96,0.03,,,1.57,,2013-07-29 02:46:00,
2013-07-28 21:58:00,64.0,63.0,30.04,SE,134,3.0,13.0,96,0.12,,,1.55,,2013-07-29 02:58:00,
2013-07-28 22:03:00,64.0,63.0,30.06,SE,125,2.0,10.0,96,0.03,,,1.57,,2013-07-29 03:03:00,
2013-07-28 22:16:00,64.0,63.0,30.06,SE,125,2.0,10.0,96,0.03,,,1.57,,2013-07-29 03:16:00,
2013-07-28 22:24:00,64.0,63.0,30.06,SE,125,2.0,10.0,96,0.03,,,1.57,,2013-07-29 03:24:00,
2013-07-28 22:36:00,64.0,63.0,30.06,SE,125,2.0,10.0,96,0.03,,,1.57,,2013-07-29 03:36:00,
2013-07-28 22:58:00,64.0,63.0,30.08,ESE,113,0.0,7.0,97,0.23,,,1.78,,2013-07-29 03:58:00,
2013-07-28 23:02:00,64.0,63.0,30.07,SSE,161,4.0,6.0,97,0.29,,,1.86,,2013-07-29 04:02:00,
2013-07-28 23:12:00,64.0,63.0,30.07,SSE,161,4.0,6.0,97,0.29,,,1.86,,2013-07-29 04:12:00,
2013-07-28 23:22:00,64.0,63.0,30.07,SSE,161,4.0,6.0,97,0.29,,,1.86,,2013-07-29 04:22:00,
2013-07-28 23:31:00,63.0,62.0,30.06,SSW,210,1.0,8.0,97,0.22,,,2.00,,2013-07-29 04:31:00,
2013-07-28 23:32:00,64.0,63.0,30.07,SSE,161,4.0,6.0,97,0.29,,,1.86,,2013-07-29 04:32:00,
2013-07-28 23:43:00,64.0,63.0,30.07,SSE,161,4.0,6.0,97,0.29,,,1.86,,2013-07-29 04:43:00,
2013-07-28 23:53:00,63.0,62.0,30.06,SSW,210,1.0,8.0,97,0.22,,,2.00,,2013-07-29 04:53:00,